Harle — ZCTV4 — position and weather

sailwx.info

Track history (hours):
 
Tides and Currents Weather Stations Pressure Air Temp Water Temp Dewpoint Dewpoint Depression Visibility Wind Speed Wind Dir Waves Ship Positions

Harle

Last reported at 2016-Apr-30 16:31 UTC. Time now 2016-Apr-30 16:49 UTC.
Position N 38°32' W 028°37'.

Length 45 m; draft 2.7 m.

Type: Pleasure craft. MMSI: 319323000.

Date/timePositionNaut miles runAvg speedWind from/ knotsBaromVisibWave heightAir tempDewpointWater temp
2016-Apr-30 16:31N 38°32' W 028°37'6 5.9
2016-Apr-30 15:33N 38°30' W 028°44'1211.7
2016-Apr-30 14:33N 38°29' W 028°59'1111.5
2016-Apr-30 13:33N 38°27' W 029°13'1211.8
2016-Apr-30 12:33N 38°26' W 029°28'1111.5
2016-Apr-30 11:34N 38°24' W 029°43'1211.7
2016-Apr-30 10:33N 38°23' W 029°58'1211.7
2016-Apr-30 09:33N 38°22' W 030°12'1211.7
2016-Apr-30 08:33N 38°20' W 030°27'  
2016-Apr-21 15:16N 18°31' W 064°37'710.0
2016-Apr-21 14:34N 18°26' W 064°42'1010.2
2016-Apr-21 13:34N 18°19' W 064°50'  
Track history (hours):
 
Tides and Currents Weather Stations Pressure Air Temp Water Temp Dewpoint Dewpoint Depression Visibility Wind Speed Wind Dir Waves Ship Positions

Harle

Last reported at 2016-Apr-30 16:31 UTC. Time now 2016-Apr-30 16:49 UTC.
Position N 38°32' W 028°37'.

Length 45 m; draft 2.7 m.

Type: Pleasure craft. MMSI: 319323000.

Date/timePositionNaut miles runAvg speedWind from/ knotsBaromVisibWave heightAir tempDewpointWater temp
2016-Apr-30 16:31N 38°32' W 028°37'6 5.9
2016-Apr-30 15:33N 38°30' W 028°44'1211.7
2016-Apr-30 14:33N 38°29' W 028°59'1111.5
2016-Apr-30 13:33N 38°27' W 029°13'1211.8
2016-Apr-30 12:33N 38°26' W 029°28'1111.5
2016-Apr-30 11:34N 38°24' W 029°43'1211.7
2016-Apr-30 10:33N 38°23' W 029°58'1211.7
2016-Apr-30 09:33N 38°22' W 030°12'1211.7
2016-Apr-30 08:33N 38°20' W 030°27'  
2016-Apr-21 15:16N 18°31' W 064°37'710.0
2016-Apr-21 14:34N 18°26' W 064°42'1010.2
2016-Apr-21 13:34N 18°19' W 064°50'  

Dump ship's entire track history